sensor_id;sensor_type;location;lat;lon;timestamp;temperature;humidity
46754;DHT22;32500;50.620;3.400;2022-08-19T00:01:34;26.20;59.10
46754;DHT22;32500;50.620;3.400;2022-08-19T00:04:02;26.20;59.10
46754;DHT22;32500;50.620;3.400;2022-08-19T00:06:29;26.20;59.10
46754;DHT22;32500;50.620;3.400;2022-08-19T00:08:56;26.20;59.20
46754;DHT22;32500;50.620;3.400;2022-08-19T00:11:23;26.20;59.10
46754;DHT22;32500;50.620;3.400;2022-08-19T00:13:49;26.20;59.20
46754;DHT22;32500;50.620;3.400;2022-08-19T00:16:16;26.20;59.00
46754;DHT22;32500;50.620;3.400;2022-08-19T00:18:46;26.20;59.00
46754;DHT22;32500;50.620;3.400;2022-08-19T00:21:12;26.10;58.90
46754;DHT22;32500;50.620;3.400;2022-08-19T00:23:38;26.20;59.20
46754;DHT22;32500;50.620;3.400;2022-08-19T00:26:04;26.10;58.90
46754;DHT22;32500;50.620;3.400;2022-08-19T00:28:31;26.10;58.90
46754;DHT22;32500;50.620;3.400;2022-08-19T00:30:58;26.10;58.90
46754;DHT22;32500;50.620;3.400;2022-08-19T00:33:24;26.20;59.10
46754;DHT22;32500;50.620;3.400;2022-08-19T00:35:50;26.10;59.00
46754;DHT22;32500;50.620;3.400;2022-08-19T00:38:16;26.10;59.00
46754;DHT22;32500;50.620;3.400;2022-08-19T00:40:44;26.10;59.10
46754;DHT22;32500;50.620;3.400;2022-08-19T00:43:13;26.10;59.10
46754;DHT22;32500;50.620;3.400;2022-08-19T00:45:43;26.10;59.00
46754;DHT22;32500;50.620;3.400;2022-08-19T00:48:10;26.10;58.90
46754;DHT22;32500;50.620;3.400;2022-08-19T00:50:36;26.10;58.90
46754;DHT22;32500;50.620;3.400;2022-08-19T00:53:06;26.10;58.90
46754;DHT22;32500;50.620;3.400;2022-08-19T00:55:32;26.10;59.00
46754;DHT22;32500;50.620;3.400;2022-08-19T00:58:02;26.10;59.00
46754;DHT22;32500;50.620;3.400;2022-08-19T01:00:31;26.10;59.00
46754;DHT22;32500;50.620;3.400;2022-08-19T01:03:05;26.10;58.90
46754;DHT22;32500;50.620;3.400;2022-08-19T01:05:32;26.10;58.90
46754;DHT22;32500;50.620;3.400;2022-08-19T01:08:01;26.10;58.90
46754;DHT22;32500;50.620;3.400;2022-08-19T01:10:32;26.10;58.90
46754;DHT22;32500;50.620;3.400;2022-08-19T01:12:59;26.10;58.90
46754;DHT22;32500;50.620;3.400;2022-08-19T01:15:32;26.10;59.20
46754;DHT22;32500;50.620;3.400;2022-08-19T01:18:07;26.00;58.80
46754;DHT22;32500;50.620;3.400;2022-08-19T01:20:33;26.00;58.90
46754;DHT22;32500;50.620;3.400;2022-08-19T01:23:00;26.00;58.90
46754;DHT22;32500;50.620;3.400;2022-08-19T01:25:42;26.00;58.90
46754;DHT22;32500;50.620;3.400;2022-08-19T01:28:19;26.00;59.00
46754;DHT22;32500;50.620;3.400;2022-08-19T01:30:46;26.00;58.80
46754;DHT22;32500;50.620;3.400;2022-08-19T01:33:12;26.00;58.90
46754;DHT22;32500;50.620;3.400;2022-08-19T01:35:38;26.00;58.90
46754;DHT22;32500;50.620;3.400;2022-08-19T01:38:09;26.00;59.00
46754;DHT22;32500;50.620;3.400;2022-08-19T01:40:38;26.00;58.90
46754;DHT22;32500;50.620;3.400;2022-08-19T01:43:05;26.00;58.80
46754;DHT22;32500;50.620;3.400;2022-08-19T01:45:33;26.00;58.90
46754;DHT22;32500;50.620;3.400;2022-08-19T01:47:59;26.00;58.90
46754;DHT22;32500;50.620;3.400;2022-08-19T01:50:26;25.90;59.00
46754;DHT22;32500;50.620;3.400;2022-08-19T01:52:53;25.90;59.00
46754;DHT22;32500;50.620;3.400;2022-08-19T01:55:21;26.00;59.00
46754;DHT22;32500;50.620;3.400;2022-08-19T01:57:52;25.90;58.90
46754;DHT22;32500;50.620;3.400;2022-08-19T02:00:20;26.00;59.00
46754;DHT22;32500;50.620;3.400;2022-08-19T02:02:46;25.90;58.90
46754;DHT22;32500;50.620;3.400;2022-08-19T02:05:13;25.90;58.90
46754;DHT22;32500;50.620;3.400;2022-08-19T02:07:40;25.90;58.90
46754;DHT22;32500;50.620;3.400;2022-08-19T02:10:10;25.90;58.80
46754;DHT22;32500;50.620;3.400;2022-08-19T02:12:35;25.90;58.90
46754;DHT22;32500;50.620;3.400;2022-08-19T02:15:02;25.90;58.90
46754;DHT22;32500;50.620;3.400;2022-08-19T02:17:29;25.90;58.80
46754;DHT22;32500;50.620;3.400;2022-08-19T02:19:57;25.90;58.80
46754;DHT22;32500;50.620;3.400;2022-08-19T02:22:23;25.90;58.90
46754;DHT22;32500;50.620;3.400;2022-08-19T02:24:51;25.90;58.80
46754;DHT22;32500;50.620;3.400;2022-08-19T02:27:17;25.90;58.90
46754;DHT22;32500;50.620;3.400;2022-08-19T02:29:43;25.90;58.80
46754;DHT22;32500;50.620;3.400;2022-08-19T02:32:10;25.90;58.90
46754;DHT22;32500;50.620;3.400;2022-08-19T02:34:36;25.90;58.90
46754;DHT22;32500;50.620;3.400;2022-08-19T02:37:02;25.90;58.90
46754;DHT22;32500;50.620;3.400;2022-08-19T02:39:27;25.80;58.80
46754;DHT22;32500;50.620;3.400;2022-08-19T02:41:53;25.80;58.90
46754;DHT22;32500;50.620;3.400;2022-08-19T02:44:19;25.80;58.90
46754;DHT22;32500;50.620;3.400;2022-08-19T02:46:48;25.90;59.00
46754;DHT22;32500;50.620;3.400;2022-08-19T02:49:15;25.90;59.00
46754;DHT22;32500;50.620;3.400;2022-08-19T02:51:43;25.80;59.50
46754;DHT22;32500;50.620;3.400;2022-08-19T02:54:11;25.90;58.90
46754;DHT22;32500;50.620;3.400;2022-08-19T02:56:39;25.90;58.90
46754;DHT22;32500;50.620;3.400;2022-08-19T02:59:06;25.80;58.90
46754;DHT22;32500;50.620;3.400;2022-08-19T03:01:35;25.80;58.90
46754;DHT22;32500;50.620;3.400;2022-08-19T03:04:04;25.80;59.00
46754;DHT22;32500;50.620;3.400;2022-08-19T03:06:30;25.80;59.00
46754;DHT22;32500;50.620;3.400;2022-08-19T03:08:58;25.80;58.90
46754;DHT22;32500;50.620;3.400;2022-08-19T03:11:31;25.80;58.90
46754;DHT22;32500;50.620;3.400;2022-08-19T03:13:58;25.80;59.00
46754;DHT22;32500;50.620;3.400;2022-08-19T03:16:25;25.80;59.00
46754;DHT22;32500;50.620;3.400;2022-08-19T03:18:52;25.80;58.90
46754;DHT22;32500;50.620;3.400;2022-08-19T03:21:23;25.80;58.90
46754;DHT22;32500;50.620;3.400;2022-08-19T03:23:50;25.80;58.90
46754;DHT22;32500;50.620;3.400;2022-08-19T03:26:18;25.80;58.90
46754;DHT22;32500;50.620;3.400;2022-08-19T03:28:45;25.80;58.90
46754;DHT22;32500;50.620;3.400;2022-08-19T03:31:16;25.80;58.90
46754;DHT22;32500;50.620;3.400;2022-08-19T03:33:43;25.70;59.00
46754;DHT22;32500;50.620;3.400;2022-08-19T03:36:14;25.80;58.90
46754;DHT22;32500;50.620;3.400;2022-08-19T03:38:43;25.70;58.90
46754;DHT22;32500;50.620;3.400;2022-08-19T03:41:17;25.70;58.80
46754;DHT22;32500;50.620;3.400;2022-08-19T03:43:44;25.70;58.90
46754;DHT22;32500;50.620;3.400;2022-08-19T03:46:14;25.70;59.00
46754;DHT22;32500;50.620;3.400;2022-08-19T03:48:41;25.70;58.90
46754;DHT22;32500;50.620;3.400;2022-08-19T03:51:14;25.70;58.90
46754;DHT22;32500;50.620;3.400;2022-08-19T03:53:40;25.70;58.90
46754;DHT22;32500;50.620;3.400;2022-08-19T03:56:09;25.70;59.00
46754;DHT22;32500;50.620;3.400;2022-08-19T03:58:35;25.70;59.00
46754;DHT22;32500;50.620;3.400;2022-08-19T04:01:07;25.70;58.90
46754;DHT22;32500;50.620;3.400;2022-08-19T04:03:33;25.70;59.00
46754;DHT22;32500;50.620;3.400;2022-08-19T04:08:39;25.70;59.00
46754;DHT22;32500;50.620;3.400;2022-08-19T04:11:17;25.70;58.90
46754;DHT22;32500;50.620;3.400;2022-08-19T04:13:43;25.70;59.00
46754;DHT22;32500;50.620;3.400;2022-08-19T04:16:10;25.60;58.90
46754;DHT22;32500;50.620;3.400;2022-08-19T04:18:37;25.60;59.00
46754;DHT22;32500;50.620;3.400;2022-08-19T04:21:05;25.70;59.00
46754;DHT22;32500;50.620;3.400;2022-08-19T04:23:32;25.60;58.90
46754;DHT22;32500;50.620;3.400;2022-08-19T04:25:59;25.60;58.80
46754;DHT22;32500;50.620;3.400;2022-08-19T04:28:24;25.60;58.90
46754;DHT22;32500;50.620;3.400;2022-08-19T04:30:52;25.70;58.90
46754;DHT22;32500;50.620;3.400;2022-08-19T04:33:21;25.70;58.90
46754;DHT22;32500;50.620;3.400;2022-08-19T04:35:48;25.60;58.90
46754;DHT22;32500;50.620;3.400;2022-08-19T04:38:16;25.60;59.00
46754;DHT22;32500;50.620;3.400;2022-08-19T04:40:44;25.60;58.80
46754;DHT22;32500;50.620;3.400;2022-08-19T04:43:29;25.60;58.90
46754;DHT22;32500;50.620;3.400;2022-08-19T04:45:55;25.70;58.90
46754;DHT22;32500;50.620;3.400;2022-08-19T04:48:21;25.70;58.80
46754;DHT22;32500;50.620;3.400;2022-08-19T04:50:55;25.60;58.80
46754;DHT22;32500;50.620;3.400;2022-08-19T04:53:31;25.60;58.80
46754;DHT22;32500;50.620;3.400;2022-08-19T04:55:59;25.60;58.80
46754;DHT22;32500;50.620;3.400;2022-08-19T04:58:26;25.60;59.00
46754;DHT22;32500;50.620;3.400;2022-08-19T05:00:52;25.60;58.90
46754;DHT22;32500;50.620;3.400;2022-08-19T05:03:18;25.60;58.90
46754;DHT22;32500;50.620;3.400;2022-08-19T05:05:45;25.70;59.50
46754;DHT22;32500;50.620;3.400;2022-08-19T05:08:16;25.60;58.90
46754;DHT22;32500;50.620;3.400;2022-08-19T05:10:46;25.70;59.60
46754;DHT22;32500;50.620;3.400;2022-08-19T05:13:13;25.60;59.00
46754;DHT22;32500;50.620;3.400;2022-08-19T05:15:40;25.60;59.00
46754;DHT22;32500;50.620;3.400;2022-08-19T05:18:06;25.60;59.00
46754;DHT22;32500;50.620;3.400;2022-08-19T05:20:50;25.60;59.10
46754;DHT22;32500;50.620;3.400;2022-08-19T05:23:34;25.60;59.10
46754;DHT22;32500;50.620;3.400;2022-08-19T05:26:00;25.60;59.20
46754;DHT22;32500;50.620;3.400;2022-08-19T05:28:25;25.70;59.20
46754;DHT22;32500;50.620;3.400;2022-08-19T05:30:51;25.60;59.20
46754;DHT22;32500;50.620;3.400;2022-08-19T05:33:17;25.70;59.30
46754;DHT22;32500;50.620;3.400;2022-08-19T05:35:43;25.60;59.30
46754;DHT22;32500;50.620;3.400;2022-08-19T05:38:10;25.60;59.50
46754;DHT22;32500;50.620;3.400;2022-08-19T05:40:37;25.70;59.50
46754;DHT22;32500;50.620;3.400;2022-08-19T05:43:05;25.60;59.50
46754;DHT22;32500;50.620;3.400;2022-08-19T05:45:31;25.60;59.50
46754;DHT22;32500;50.620;3.400;2022-08-19T05:47:57;25.60;59.50
46754;DHT22;32500;50.620;3.400;2022-08-19T05:50:24;25.60;59.50
46754;DHT22;32500;50.620;3.400;2022-08-19T05:52:52;25.60;59.60
46754;DHT22;32500;50.620;3.400;2022-08-19T05:55:18;25.60;59.60
46754;DHT22;32500;50.620;3.400;2022-08-19T05:57:46;25.60;59.50
46754;DHT22;32500;50.620;3.400;2022-08-19T06:00:13;25.60;59.50
46754;DHT22;32500;50.620;3.400;2022-08-19T06:02:39;25.70;59.60
46754;DHT22;32500;50.620;3.400;2022-08-19T06:05:06;25.60;59.50
46754;DHT22;32500;50.620;3.400;2022-08-19T06:07:32;25.60;59.50
46754;DHT22;32500;50.620;3.400;2022-08-19T06:09:58;25.60;59.50
46754;DHT22;32500;50.620;3.400;2022-08-19T06:12:24;25.60;59.60
46754;DHT22;32500;50.620;3.400;2022-08-19T06:14:59;25.70;59.70
46754;DHT22;32500;50.620;3.400;2022-08-19T06:17:25;25.60;59.60
46754;DHT22;32500;50.620;3.400;2022-08-19T06:19:51;25.60;59.60
46754;DHT22;32500;50.620;3.400;2022-08-19T06:22:17;25.60;59.60
46754;DHT22;32500;50.620;3.400;2022-08-19T06:24:43;25.60;59.60
46754;DHT22;32500;50.620;3.400;2022-08-19T06:27:09;25.60;59.60
46754;DHT22;32500;50.620;3.400;2022-08-19T06:29:35;25.60;59.50
46754;DHT22;32500;50.620;3.400;2022-08-19T06:32:02;25.60;59.60
46754;DHT22;32500;50.620;3.400;2022-08-19T06:34:31;25.60;59.70
46754;DHT22;32500;50.620;3.400;2022-08-19T06:36:58;25.60;59.70
46754;DHT22;32500;50.620;3.400;2022-08-19T06:39:28;25.60;59.60
46754;DHT22;32500;50.620;3.400;2022-08-19T06:41:57;25.60;61.70
46754;DHT22;32500;50.620;3.400;2022-08-19T06:44:27;25.40;62.40
46754;DHT22;32500;50.620;3.400;2022-08-19T06:46:56;25.30;62.90
46754;DHT22;32500;50.620;3.400;2022-08-19T06:49:22;25.20;63.60
46754;DHT22;32500;50.620;3.400;2022-08-19T06:51:48;25.20;64.00
46754;DHT22;32500;50.620;3.400;2022-08-19T06:54:16;25.20;64.70
46754;DHT22;32500;50.620;3.400;2022-08-19T06:56:42;25.10;64.80
46754;DHT22;32500;50.620;3.400;2022-08-19T06:59:14;25.00;65.30
46754;DHT22;32500;50.620;3.400;2022-08-19T07:01:43;25.00;65.40
46754;DHT22;32500;50.620;3.400;2022-08-19T07:04:11;25.00;65.60
46754;DHT22;32500;50.620;3.400;2022-08-19T07:06:37;24.90;65.70
46754;DHT22;32500;50.620;3.400;2022-08-19T07:09:05;24.90;65.90
46754;DHT22;32500;50.620;3.400;2022-08-19T07:11:32;25.00;65.80
46754;DHT22;32500;50.620;3.400;2022-08-19T07:13:58;25.00;65.80
46754;DHT22;32500;50.620;3.400;2022-08-19T07:16:24;25.00;65.90
46754;DHT22;32500;50.620;3.400;2022-08-19T07:18:50;25.00;66.30
46754;DHT22;32500;50.620;3.400;2022-08-19T07:21:21;25.10;66.00
46754;DHT22;32500;50.620;3.400;2022-08-19T07:23:48;25.00;65.90
46754;DHT22;32500;50.620;3.400;2022-08-19T07:26:28;25.10;66.10
46754;DHT22;32500;50.620;3.400;2022-08-19T07:28:55;25.00;66.20
46754;DHT22;32500;50.620;3.400;2022-08-19T07:31:23;25.00;66.30
46754;DHT22;32500;50.620;3.400;2022-08-19T07:33:50;25.00;66.20
46754;DHT22;32500;50.620;3.400;2022-08-19T07:36:20;25.00;66.20
46754;DHT22;32500;50.620;3.400;2022-08-19T07:38:49;25.00;66.30
46754;DHT22;32500;50.620;3.400;2022-08-19T07:41:18;24.90;66.70
46754;DHT22;32500;50.620;3.400;2022-08-19T07:43:45;25.00;66.70
46754;DHT22;32500;50.620;3.400;2022-08-19T07:46:12;25.00;66.50
46754;DHT22;32500;50.620;3.400;2022-08-19T07:48:40;24.90;66.50
46754;DHT22;32500;50.620;3.400;2022-08-19T07:51:08;24.90;66.50
46754;DHT22;32500;50.620;3.400;2022-08-19T07:53:35;24.90;66.70
46754;DHT22;32500;50.620;3.400;2022-08-19T07:56:02;24.90;66.50
46754;DHT22;32500;50.620;3.400;2022-08-19T07:58:31;25.00;66.80
46754;DHT22;32500;50.620;3.400;2022-08-19T08:00:58;25.00;66.90
46754;DHT22;32500;50.620;3.400;2022-08-19T08:03:25;24.90;67.00
46754;DHT22;32500;50.620;3.400;2022-08-19T08:06:12;25.00;67.00
46754;DHT22;32500;50.620;3.400;2022-08-19T08:08:56;25.00;66.90
46754;DHT22;32500;50.620;3.400;2022-08-19T08:11:43;25.00;67.00
46754;DHT22;32500;50.620;3.400;2022-08-19T08:14:19;25.00;67.00
46754;DHT22;32500;50.620;3.400;2022-08-19T08:16:45;25.10;66.90
46754;DHT22;32500;50.620;3.400;2022-08-19T08:19:12;25.10;66.90
46754;DHT22;32500;50.620;3.400;2022-08-19T08:21:40;25.10;66.90
46754;DHT22;32500;50.620;3.400;2022-08-19T08:24:05;25.00;67.00
46754;DHT22;32500;50.620;3.400;2022-08-19T08:26:31;25.20;67.60
46754;DHT22;32500;50.620;3.400;2022-08-19T08:28:57;25.10;67.40
46754;DHT22;32500;50.620;3.400;2022-08-19T08:31:22;25.10;67.20
46754;DHT22;32500;50.620;3.400;2022-08-19T08:33:49;25.20;67.20
46754;DHT22;32500;50.620;3.400;2022-08-19T08:36:14;25.20;66.90
46754;DHT22;32500;50.620;3.400;2022-08-19T08:38:42;25.20;66.90
46754;DHT22;32500;50.620;3.400;2022-08-19T08:43:56;25.30;66.70
46754;DHT22;32500;50.620;3.400;2022-08-19T08:46:29;25.20;66.30
46754;DHT22;32500;50.620;3.400;2022-08-19T08:49:09;25.30;66.50
46754;DHT22;32500;50.620;3.400;2022-08-19T08:51:51;25.20;66.60
46754;DHT22;32500;50.620;3.400;2022-08-19T08:54:20;25.30;66.80
46754;DHT22;32500;50.620;3.400;2022-08-19T08:56:49;25.20;66.60
46754;DHT22;32500;50.620;3.400;2022-08-19T09:01:46;25.40;66.70
46754;DHT22;32500;50.620;3.400;2022-08-19T09:04:12;25.40;66.50
46754;DHT22;32500;50.620;3.400;2022-08-19T09:06:40;25.40;66.70
46754;DHT22;32500;50.620;3.400;2022-08-19T09:09:34;25.40;66.90
46754;DHT22;32500;50.620;3.400;2022-08-19T09:15:10;25.40;66.80
46754;DHT22;32500;50.620;3.400;2022-08-19T09:17:37;25.40;66.60
46754;DHT22;32500;50.620;3.400;2022-08-19T09:22:39;25.30;66.80
46754;DHT22;32500;50.620;3.400;2022-08-19T09:25:08;25.30;66.80
46754;DHT22;32500;50.620;3.400;2022-08-19T09:27:36;25.30;66.90
46754;DHT22;32500;50.620;3.400;2022-08-19T09:30:04;25.30;67.10
46754;DHT22;32500;50.620;3.400;2022-08-19T09:32:30;25.20;67.10
46754;DHT22;32500;50.620;3.400;2022-08-19T09:34:56;25.30;67.10
46754;DHT22;32500;50.620;3.400;2022-08-19T09:37:24;25.20;67.50
46754;DHT22;32500;50.620;3.400;2022-08-19T09:39:50;25.40;67.10
46754;DHT22;32500;50.620;3.400;2022-08-19T09:42:16;25.40;66.80
46754;DHT22;32500;50.620;3.400;2022-08-19T09:44:43;25.50;67.10
46754;DHT22;32500;50.620;3.400;2022-08-19T09:47:10;25.50;67.40
46754;DHT22;32500;50.620;3.400;2022-08-19T09:49:36;25.50;67.10
46754;DHT22;32500;50.620;3.400;2022-08-19T09:52:03;25.50;67.00
46754;DHT22;32500;50.620;3.400;2022-08-19T09:54:29;25.40;67.50
46754;DHT22;32500;50.620;3.400;2022-08-19T09:56:55;25.40;67.50
46754;DHT22;32500;50.620;3.400;2022-08-19T09:59:23;25.50;67.20
46754;DHT22;32500;50.620;3.400;2022-08-19T10:01:49;25.50;67.10
46754;DHT22;32500;50.620;3.400;2022-08-19T10:04:16;25.50;66.80
46754;DHT22;32500;50.620;3.400;2022-08-19T10:06:42;25.50;66.70
46754;DHT22;32500;50.620;3.400;2022-08-19T10:09:10;25.40;66.00
46754;DHT22;32500;50.620;3.400;2022-08-19T10:11:39;25.50;66.80
46754;DHT22;32500;50.620;3.400;2022-08-19T10:14:05;25.40;66.80
46754;DHT22;32500;50.620;3.400;2022-08-19T10:16:36;25.50;66.90
46754;DHT22;32500;50.620;3.400;2022-08-19T10:19:02;25.50;66.70
46754;DHT22;32500;50.620;3.400;2022-08-19T10:21:30;25.50;65.60
46754;DHT22;32500;50.620;3.400;2022-08-19T10:23:59;25.40;66.20
46754;DHT22;32500;50.620;3.400;2022-08-19T10:26:30;25.40;66.70
46754;DHT22;32500;50.620;3.400;2022-08-19T10:28:57;25.40;68.10
46754;DHT22;32500;50.620;3.400;2022-08-19T10:31:28;25.50;69.00
46754;DHT22;32500;50.620;3.400;2022-08-19T10:33:54;25.40;67.40
46754;DHT22;32500;50.620;3.400;2022-08-19T10:36:29;25.60;68.60
46754;DHT22;32500;50.620;3.400;2022-08-19T10:38:57;25.50;67.90
46754;DHT22;32500;50.620;3.400;2022-08-19T10:41:27;25.50;67.90
46754;DHT22;32500;50.620;3.400;2022-08-19T10:43:55;25.50;67.90
46754;DHT22;32500;50.620;3.400;2022-08-19T10:46:24;25.40;67.10
46754;DHT22;32500;50.620;3.400;2022-08-19T10:48:50;25.40;68.00
46754;DHT22;32500;50.620;3.400;2022-08-19T10:51:16;25.40;68.10
46754;DHT22;32500;50.620;3.400;2022-08-19T10:54:02;25.40;68.00
46754;DHT22;32500;50.620;3.400;2022-08-19T10:56:29;25.40;67.80
46754;DHT22;32500;50.620;3.400;2022-08-19T10:59:14;25.50;67.80
46754;DHT22;32500;50.620;3.400;2022-08-19T11:01:42;25.40;67.30
46754;DHT22;32500;50.620;3.400;2022-08-19T11:04:08;25.50;67.80
46754;DHT22;32500;50.620;3.400;2022-08-19T11:06:41;25.60;67.30
46754;DHT22;32500;50.620;3.400;2022-08-19T11:09:09;25.40;67.30
46754;DHT22;32500;50.620;3.400;2022-08-19T11:11:36;25.40;67.70
46754;DHT22;32500;50.620;3.400;2022-08-19T11:14:07;25.40;67.40
46754;DHT22;32500;50.620;3.400;2022-08-19T11:16:32;25.40;67.60
46754;DHT22;32500;50.620;3.400;2022-08-19T11:18:59;25.30;67.80
46754;DHT22;32500;50.620;3.400;2022-08-19T11:21:28;25.40;68.00
46754;DHT22;32500;50.620;3.400;2022-08-19T11:24:00;25.40;68.10
46754;DHT22;32500;50.620;3.400;2022-08-19T11:26:29;25.50;68.60
46754;DHT22;32500;50.620;3.400;2022-08-19T11:28:56;25.40;67.90
46754;DHT22;32500;50.620;3.400;2022-08-19T11:31:26;25.40;68.50
46754;DHT22;32500;50.620;3.400;2022-08-19T11:33:52;25.30;68.80
46754;DHT22;32500;50.620;3.400;2022-08-19T11:36:20;25.40;68.40
46754;DHT22;32500;50.620;3.400;2022-08-19T11:38:49;25.30;68.50
46754;DHT22;32500;50.620;3.400;2022-08-19T11:41:17;25.30;68.70
46754;DHT22;32500;50.620;3.400;2022-08-19T11:43:43;25.30;69.20
46754;DHT22;32500;50.620;3.400;2022-08-19T11:46:11;25.30;69.60
46754;DHT22;32500;50.620;3.400;2022-08-19T11:48:38;25.30;70.00
46754;DHT22;32500;50.620;3.400;2022-08-19T11:51:06;25.30;72.20
46754;DHT22;32500;50.620;3.400;2022-08-19T11:53:33;25.30;70.20
46754;DHT22;32500;50.620;3.400;2022-08-19T11:55:59;25.30;71.00
46754;DHT22;32500;50.620;3.400;2022-08-19T11:58:25;25.30;71.20
46754;DHT22;32500;50.620;3.400;2022-08-19T12:00:51;25.40;71.40
46754;DHT22;32500;50.620;3.400;2022-08-19T12:03:18;25.30;71.10
46754;DHT22;32500;50.620;3.400;2022-08-19T12:05:45;25.40;71.00
46754;DHT22;32500;50.620;3.400;2022-08-19T12:08:11;25.40;70.30
46754;DHT22;32500;50.620;3.400;2022-08-19T12:10:38;25.40;70.60
46754;DHT22;32500;50.620;3.400;2022-08-19T12:13:04;25.50;70.10
46754;DHT22;32500;50.620;3.400;2022-08-19T12:15:38;25.60;69.60
46754;DHT22;32500;50.620;3.400;2022-08-19T12:18:07;25.50;69.50
46754;DHT22;32500;50.620;3.400;2022-08-19T12:20:36;25.50;70.40
46754;DHT22;32500;50.620;3.400;2022-08-19T12:23:03;25.50;70.40
46754;DHT22;32500;50.620;3.400;2022-08-19T12:25:28;25.40;71.70
46754;DHT22;32500;50.620;3.400;2022-08-19T12:27:54;25.40;72.40
46754;DHT22;32500;50.620;3.400;2022-08-19T12:30:20;25.30;73.10
46754;DHT22;32500;50.620;3.400;2022-08-19T12:32:46;25.30;73.90
46754;DHT22;32500;50.620;3.400;2022-08-19T12:35:12;25.40;72.30
46754;DHT22;32500;50.620;3.400;2022-08-19T12:37:38;25.40;73.70
46754;DHT22;32500;50.620;3.400;2022-08-19T12:40:05;25.40;74.00
46754;DHT22;32500;50.620;3.400;2022-08-19T12:42:31;25.40;74.30
46754;DHT22;32500;50.620;3.400;2022-08-19T12:44:57;25.40;73.70
46754;DHT22;32500;50.620;3.400;2022-08-19T12:47:22;25.50;72.70
46754;DHT22;32500;50.620;3.400;2022-08-19T12:49:48;25.50;72.10
46754;DHT22;32500;50.620;3.400;2022-08-19T12:52:14;25.40;72.10
46754;DHT22;32500;50.620;3.400;2022-08-19T12:54:41;25.40;72.60
46754;DHT22;32500;50.620;3.400;2022-08-19T12:57:09;25.40;72.90
46754;DHT22;32500;50.620;3.400;2022-08-19T12:59:36;25.40;73.30
46754;DHT22;32500;50.620;3.400;2022-08-19T13:02:03;25.40;74.20
46754;DHT22;32500;50.620;3.400;2022-08-19T13:04:30;25.40;74.20
46754;DHT22;32500;50.620;3.400;2022-08-19T13:06:56;25.50;73.70
46754;DHT22;32500;50.620;3.400;2022-08-19T13:09:22;25.50;73.90
46754;DHT22;32500;50.620;3.400;2022-08-19T13:11:47;25.60;73.80
46754;DHT22;32500;50.620;3.400;2022-08-19T13:14:13;25.60;72.40
46754;DHT22;32500;50.620;3.400;2022-08-19T13:16:39;25.60;72.50
46754;DHT22;32500;50.620;3.400;2022-08-19T13:19:05;25.60;72.30
46754;DHT22;32500;50.620;3.400;2022-08-19T13:22:23;25.70;71.10
46754;DHT22;32500;50.620;3.400;2022-08-19T13:24:50;25.70;72.00
46754;DHT22;32500;50.620;3.400;2022-08-19T13:27:15;25.70;72.60
46754;DHT22;32500;50.620;3.400;2022-08-19T13:29:41;25.70;72.40
46754;DHT22;32500;50.620;3.400;2022-08-19T13:32:26;25.80;72.90
46754;DHT22;32500;50.620;3.400;2022-08-19T13:35:10;25.70;72.40
46754;DHT22;32500;50.620;3.400;2022-08-19T13:37:36;25.70;73.30
46754;DHT22;32500;50.620;3.400;2022-08-19T13:40:14;25.70;73.10
46754;DHT22;32500;50.620;3.400;2022-08-19T13:42:43;25.70;72.70
46754;DHT22;32500;50.620;3.400;2022-08-19T13:45:09;25.70;73.00
46754;DHT22;32500;50.620;3.400;2022-08-19T13:47:36;25.70;72.60
46754;DHT22;32500;50.620;3.400;2022-08-19T13:50:04;25.70;72.70
46754;DHT22;32500;50.620;3.400;2022-08-19T13:52:30;25.80;72.60
46754;DHT22;32500;50.620;3.400;2022-08-19T13:54:56;25.80;72.10
46754;DHT22;32500;50.620;3.400;2022-08-19T13:57:22;25.70;72.50
46754;DHT22;32500;50.620;3.400;2022-08-19T13:59:48;25.80;72.90
46754;DHT22;32500;50.620;3.400;2022-08-19T14:02:13;25.70;73.10
46754;DHT22;32500;50.620;3.400;2022-08-19T14:04:40;25.80;73.30
46754;DHT22;32500;50.620;3.400;2022-08-19T14:07:05;25.70;72.40
46754;DHT22;32500;50.620;3.400;2022-08-19T14:09:31;25.70;73.00
46754;DHT22;32500;50.620;3.400;2022-08-19T14:11:56;25.70;72.20
46754;DHT22;32500;50.620;3.400;2022-08-19T14:14:22;25.80;72.30
46754;DHT22;32500;50.620;3.400;2022-08-19T14:16:48;25.80;72.60
46754;DHT22;32500;50.620;3.400;2022-08-19T14:19:14;25.80;72.50
46754;DHT22;32500;50.620;3.400;2022-08-19T14:21:40;25.80;72.50
46754;DHT22;32500;50.620;3.400;2022-08-19T14:24:07;25.80;72.00
46754;DHT22;32500;50.620;3.400;2022-08-19T14:26:33;25.80;71.90
46754;DHT22;32500;50.620;3.400;2022-08-19T14:28:58;25.80;71.70
46754;DHT22;32500;50.620;3.400;2022-08-19T14:31:24;25.90;71.80
46754;DHT22;32500;50.620;3.400;2022-08-19T14:33:52;25.80;71.50
46754;DHT22;32500;50.620;3.400;2022-08-19T14:36:19;25.90;70.90
46754;DHT22;32500;50.620;3.400;2022-08-19T14:38:47;26.00;69.80
46754;DHT22;32500;50.620;3.400;2022-08-19T14:41:21;26.00;68.80
46754;DHT22;32500;50.620;3.400;2022-08-19T14:43:51;26.00;67.10
46754;DHT22;32500;50.620;3.400;2022-08-19T14:46:21;25.90;66.20
46754;DHT22;32500;50.620;3.400;2022-08-19T14:48:48;26.00;66.50
46754;DHT22;32500;50.620;3.400;2022-08-19T14:51:15;26.00;65.90
46754;DHT22;32500;50.620;3.400;2022-08-19T14:53:41;26.10;65.30
46754;DHT22;32500;50.620;3.400;2022-08-19T14:56:13;26.20;64.40
46754;DHT22;32500;50.620;3.400;2022-08-19T14:58:43;26.30;63.70
46754;DHT22;32500;50.620;3.400;2022-08-19T15:01:09;26.50;63.20
46754;DHT22;32500;50.620;3.400;2022-08-19T15:03:37;26.40;62.80
46754;DHT22;32500;50.620;3.400;2022-08-19T15:06:05;26.40;62.80
46754;DHT22;32500;50.620;3.400;2022-08-19T15:08:33;26.50;62.60
46754;DHT22;32500;50.620;3.400;2022-08-19T15:11:01;26.50;60.90
46754;DHT22;32500;50.620;3.400;2022-08-19T15:13:28;26.50;61.80
46754;DHT22;32500;50.620;3.400;2022-08-19T15:15:55;26.50;61.30
46754;DHT22;32500;50.620;3.400;2022-08-19T15:18:22;26.50;61.40
46754;DHT22;32500;50.620;3.400;2022-08-19T15:20:49;26.50;61.30
46754;DHT22;32500;50.620;3.400;2022-08-19T15:23:16;26.50;61.10
46754;DHT22;32500;50.620;3.400;2022-08-19T15:25:42;26.50;60.40
46754;DHT22;32500;50.620;3.400;2022-08-19T15:28:09;26.50;60.30
46754;DHT22;32500;50.620;3.400;2022-08-19T15:30:37;26.60;59.90
46754;DHT22;32500;50.620;3.400;2022-08-19T15:33:04;26.50;59.80
46754;DHT22;32500;50.620;3.400;2022-08-19T15:35:30;26.50;59.80
46754;DHT22;32500;50.620;3.400;2022-08-19T15:37:56;26.50;59.80
46754;DHT22;32500;50.620;3.400;2022-08-19T15:40:25;26.50;59.80
46754;DHT22;32500;50.620;3.400;2022-08-19T15:42:51;26.50;59.90
46754;DHT22;32500;50.620;3.400;2022-08-19T15:45:18;26.50;59.90
46754;DHT22;32500;50.620;3.400;2022-08-19T15:47:45;26.30;59.90
46754;DHT22;32500;50.620;3.400;2022-08-19T15:50:14;26.40;59.80